Aérodrome :
LOGIN :

S'inscrire | Disclaimer

   EN    FR    IT 

 










Légende :    VFR   VFR Marginal   IFR   IFR Intensif   IFR Très Intensif
Visi : 
Plafond : 
>= 8 km
>= 3000ft
5 à 8 km
1000 à 3000 ft
1500m à 5 km
500 à 1000 ft
800 à 1500m
200 à 500 ft
< 800m
< 200 ft
Symboles :   Orages  Brouillard  Fortes neiges  Fortes précipitations  Vent > 20 kt
SIGMETs :   Divers  Orages  Givrage  Turbulence  Onde Orograph.  Cendres Volcan.






- Altitude de l'aérodrome : 7 ft
- Code IATA : XHE


LFTH - Hyeres

DERNIER METAR :
  • 261830Z AUTO 29015KT CAVOK 16/04 Q1007 BECMG 30015G25KT

METARs EXPIRÉS :
  • 261800Z AUTO 29012KT CAVOK 15/04 Q1007 BECMG 30015G25KT
  • 261730Z AUTO 28009KT CAVOK 15/04 Q1006 BECMG 30015G25KT
  • 261700Z AUTO 30010KT CAVOK 15/05 Q1006 BECMG 30015G25KT
  • 261630Z AUTO 28007KT CAVOK 16/06 Q1005 BECMG 30015G25KT
  • 261600Z AUTO 30010KT CAVOK 16/07 Q1005 BECMG 30015G25KT

TAF TAF LFTH
Valide du 26 à 15h jusqu'au 27 à 15h UTC


261400Z 2615/2715 30015G25KT CAVOK
TEMPO 2622/2704 28020G30KT
TEMPO 2705/2710 29012KT



MET'MAP, la Météo Aéronautique d'un coup d'oeil ! - Copyright ORBIFLY Décembre 2007 - Disclaimer

ORBIFLY MET'MAP TEAM :

Programmation & Développement : Alexandra Zaïnal
Sur une idée originale de : Baudouin d'Aumeries
Assistance à la programmation : Marc-Olivier Méhu
Soutien technique & logistique : Manuel Goepfert

Contact : metmap@orbifly.com




SOURCES & CREDITS :

   NOAA